createdAt,value
2023-03-25T00:00:16.861Z,8.50
2023-03-25T00:02:49.241Z,8.60
2023-03-25T00:05:19.159Z,8.60
2023-03-25T00:07:48.331Z,8.70
2023-03-25T00:10:15.789Z,8.70
2023-03-25T00:12:42.794Z,8.70
2023-03-25T00:15:12.657Z,8.80
2023-03-25T00:17:39.736Z,8.80
2023-03-25T00:20:11.795Z,8.80
2023-03-25T00:22:44.117Z,8.80
2023-03-25T00:25:16.640Z,8.80
2023-03-25T00:27:46.661Z,8.80
2023-03-25T00:30:19.107Z,8.80
2023-03-25T00:32:50.329Z,8.80
2023-03-25T00:35:19.251Z,8.80
2023-03-25T00:37:47.976Z,8.90
2023-03-25T00:40:15.239Z,8.90
2023-03-25T00:42:45.056Z,8.90
2023-03-25T00:45:14.639Z,8.90
2023-03-25T00:47:42.482Z,8.90
2023-03-25T00:50:09.813Z,8.90
2023-03-25T00:52:37.278Z,8.90
2023-03-25T00:55:05.308Z,8.90
2023-03-25T00:57:33.011Z,8.90
2023-03-25T01:00:00.260Z,9.00
2023-03-25T01:02:27.668Z,9.00
2023-03-25T01:04:55.351Z,9.00
2023-03-25T01:07:22.014Z,9.00
2023-03-25T01:09:49.418Z,9.00
2023-03-25T01:12:17.000Z,9.00
2023-03-25T01:14:44.274Z,9.00
2023-03-25T01:17:11.540Z,9.00
2023-03-25T01:19:39.422Z,9.00
2023-03-25T01:22:06.496Z,9.00
2023-03-25T01:24:33.773Z,9.00
2023-03-25T01:27:00.568Z,9.00
2023-03-25T01:29:29.297Z,9.00
2023-03-25T01:31:57.408Z,8.90
2023-03-25T01:34:25.551Z,8.90
2023-03-25T01:36:55.457Z,8.90
2023-03-25T01:39:22.966Z,8.90
2023-03-25T01:41:51.613Z,8.90
2023-03-25T01:44:18.287Z,9.00
2023-03-25T01:46:46.967Z,8.90
2023-03-25T01:49:21.715Z,8.90
2023-03-25T01:51:53.473Z,8.90
2023-03-25T01:54:21.454Z,8.90
2023-03-25T01:56:49.547Z,8.90
2023-03-25T01:59:20.009Z,8.90
2023-03-25T02:01:47.113Z,8.90
2023-03-25T02:04:23.040Z,8.80
2023-03-25T02:06:53.623Z,8.70
2023-03-25T02:09:24.322Z,8.70
2023-03-25T02:11:54.536Z,8.60
2023-03-25T02:14:32.041Z,8.70
2023-03-25T02:17:03.524Z,8.70
2023-03-25T02:20:06.351Z,8.70
2023-03-25T02:22:54.317Z,8.70
2023-03-25T02:26:05.919Z,8.70
2023-03-25T02:28:47.470Z,8.60
2023-03-25T02:31:33.041Z,8.60
2023-03-25T02:34:22.225Z,8.50
2023-03-25T02:37:13.555Z,8.40
2023-03-25T02:40:13.704Z,8.40
2023-03-25T02:43:00.137Z,8.30
2023-03-25T02:45:37.460Z,8.30
2023-03-25T02:48:15.163Z,8.30
2023-03-25T02:50:46.512Z,8.30
2023-03-25T02:53:20.636Z,8.30
2023-03-25T02:55:49.439Z,8.40
2023-03-25T02:58:19.572Z,8.30
2023-03-25T03:00:48.228Z,8.40
2023-03-25T03:03:15.322Z,8.40
2023-03-25T03:05:45.772Z,8.40
2023-03-25T03:08:19.421Z,8.40
2023-03-25T03:11:13.658Z,8.40
2023-03-25T03:13:52.627Z,8.40
2023-03-25T03:16:50.395Z,8.30
2023-03-25T03:19:21.460Z,8.30
2023-03-25T03:22:03.448Z,8.20
2023-03-25T03:24:41.106Z,8.20
2023-03-25T03:27:23.523Z,8.20
2023-03-25T03:29:54.506Z,8.20
2023-03-25T03:32:36.294Z,8.20
2023-03-25T03:35:08.887Z,8.20
2023-03-25T03:37:43.150Z,8.20
2023-03-25T03:40:17.353Z,8.30
2023-03-25T03:42:53.736Z,8.30
2023-03-25T03:45:30.820Z,8.40
2023-03-25T03:48:02.642Z,8.40
2023-03-25T03:50:39.819Z,8.40
2023-03-25T03:53:17.832Z,8.40
2023-03-25T03:56:01.899Z,8.40
2023-03-25T03:58:38.480Z,8.40
2023-03-25T04:01:10.551Z,8.40
2023-03-25T04:03:49.950Z,8.30
2023-03-25T04:06:30.164Z,8.30
2023-03-25T04:09:05.468Z,8.30
2023-03-25T04:11:53.436Z,8.30
2023-03-25T04:14:20.306Z,8.30
2023-03-25T04:16:47.699Z,8.40
2023-03-25T04:19:18.345Z,8.30
2023-03-25T04:21:48.083Z,8.30
2023-03-25T04:24:16.502Z,8.30
2023-03-25T04:26:44.047Z,8.30
2023-03-25T04:29:13.605Z,8.40
2023-03-25T04:31:46.499Z,8.40
2023-03-25T04:34:16.549Z,8.40
2023-03-25T04:36:43.834Z,8.40
2023-03-25T04:39:17.542Z,8.50
2023-03-25T04:41:44.858Z,8.50
2023-03-25T04:44:12.425Z,8.50
2023-03-25T04:46:39.868Z,8.50
2023-03-25T04:49:13.820Z,8.50
2023-03-25T04:51:49.647Z,8.50
2023-03-25T04:54:18.192Z,8.50
2023-03-25T04:56:47.904Z,8.50
2023-03-25T04:59:15.821Z,8.50
2023-03-25T05:01:46.228Z,8.40
2023-03-25T05:04:17.215Z,8.40
2023-03-25T05:06:47.391Z,8.30
2023-03-25T05:09:18.901Z,8.30
2023-03-25T05:11:46.919Z,8.30
2023-03-25T05:14:15.665Z,8.30
2023-03-25T05:16:43.917Z,8.30
2023-03-25T05:19:10.814Z,8.30
2023-03-25T05:21:41.206Z,8.30
2023-03-25T05:24:10.233Z,8.30
2023-03-25T05:26:43.014Z,8.30
2023-03-25T05:29:15.039Z,8.30
2023-03-25T05:31:45.575Z,8.30
2023-03-25T05:34:14.380Z,8.20
2023-03-25T05:36:42.101Z,8.20
2023-03-25T05:39:10.688Z,8.30
2023-03-25T05:41:40.884Z,8.30
2023-03-25T05:44:09.628Z,8.30
2023-03-25T05:46:36.977Z,8.30
2023-03-25T05:49:03.681Z,8.30
2023-03-25T05:51:37.960Z,8.40
2023-03-25T05:54:10.846Z,8.40
2023-03-25T05:56:39.102Z,8.40
2023-03-25T05:59:05.889Z,8.40
2023-03-25T06:01:34.442Z,8.40
2023-03-25T06:04:02.561Z,8.40
2023-03-25T06:06:34.619Z,8.40
2023-03-25T06:09:02.098Z,8.40
2023-03-25T06:11:29.657Z,8.30
2023-03-25T06:13:56.576Z,8.30
2023-03-25T06:16:28.193Z,8.30
2023-03-25T06:19:00.374Z,8.20
2023-03-25T06:21:33.444Z,8.20
2023-03-25T06:24:01.633Z,8.20
2023-03-25T06:26:28.925Z,8.20
2023-03-25T06:28:55.769Z,8.10
2023-03-25T06:31:28.426Z,8.10
2023-03-25T06:33:55.979Z,8.20
2023-03-25T06:36:25.921Z,8.20
2023-03-25T06:38:53.541Z,8.20
2023-03-25T06:41:25.440Z,8.30
2023-03-25T06:44:03.133Z,8.30
2023-03-25T06:46:45.491Z,8.40
2023-03-25T06:49:16.051Z,8.50
2023-03-25T06:51:43.525Z,8.50
2023-03-25T06:54:10.417Z,8.60
2023-03-25T06:56:38.042Z,8.70
2023-03-25T06:59:05.704Z,8.80
2023-03-25T07:01:33.334Z,8.80
2023-03-25T07:04:00.144Z,8.90
2023-03-25T07:06:27.455Z,9.00
2023-03-25T07:08:54.162Z,9.00
2023-03-25T07:11:27.391Z,9.10
2023-03-25T07:13:54.284Z,9.10
2023-03-25T07:16:22.553Z,9.00
2023-03-25T07:18:50.797Z,9.00
2023-03-25T07:21:19.191Z,8.90
2023-03-25T07:23:45.848Z,8.90
2023-03-25T07:26:16.713Z,8.80
2023-03-25T07:28:43.471Z,8.80
2023-03-25T07:31:13.339Z,8.70
2023-03-25T07:33:40.544Z,8.70
2023-03-25T07:36:10.651Z,8.80
2023-03-25T07:38:37.549Z,8.90
2023-03-25T07:41:15.678Z,8.90
2023-03-25T07:44:04.491Z,9.00
2023-03-25T07:46:32.817Z,9.00
2023-03-25T07:48:59.453Z,9.00
2023-03-25T07:51:26.890Z,9.10
2023-03-25T07:53:53.682Z,9.20
2023-03-25T07:56:21.040Z,9.40
2023-03-25T07:58:49.481Z,9.80
2023-03-25T08:01:16.847Z,10.00
2023-03-25T08:03:43.532Z,10.20
2023-03-25T08:06:10.834Z,10.50
2023-03-25T08:08:37.963Z,10.80
2023-03-25T08:11:05.849Z,11.20
2023-03-25T08:13:32.693Z,11.50
2023-03-25T08:16:00.126Z,11.40
2023-03-25T08:18:26.951Z,11.20
2023-03-25T08:20:54.460Z,11.10
2023-03-25T08:23:23.435Z,10.80
2023-03-25T08:25:51.691Z,10.50
2023-03-25T08:28:23.336Z,10.40
2023-03-25T08:30:54.846Z,10.30
2023-03-25T08:33:27.795Z,10.20
2023-03-25T08:35:57.981Z,10.20
2023-03-25T08:38:25.505Z,10.50
2023-03-25T08:40:52.966Z,10.90
2023-03-25T08:43:19.594Z,11.20
2023-03-25T08:45:46.894Z,11.10
2023-03-25T08:48:13.567Z,11.00
2023-03-25T08:50:40.767Z,10.90
2023-03-25T08:53:07.387Z,10.90
2023-03-25T08:55:34.692Z,10.80
2023-03-25T08:58:06.061Z,10.70
2023-03-25T09:00:33.628Z,10.70
2023-03-25T09:03:00.801Z,10.60
2023-03-25T09:05:28.054Z,10.60
2023-03-25T09:07:55.746Z,10.60
2023-03-25T09:10:22.670Z,10.60
2023-03-25T09:18:56.196Z,10.50
2023-03-25T09:21:23.728Z,10.40
2023-03-25T09:23:51.262Z,10.40
2023-03-25T09:26:19.224Z,10.50
2023-03-25T09:28:46.368Z,10.60
2023-03-25T09:31:15.439Z,10.90
2023-03-25T09:33:42.820Z,11.10
2023-03-25T09:36:11.912Z,11.30
2023-03-25T09:38:38.936Z,11.30
2023-03-25T09:41:22.103Z,11.30
2023-03-25T09:50:24.443Z,11.60
2023-03-25T09:53:01.959Z,11.70
2023-03-25T09:55:33.118Z,11.80
2023-03-25T09:58:20.880Z,11.70
2023-03-25T10:01:09.668Z,11.90
2023-03-25T10:04:03.694Z,11.90
2023-03-25T10:06:34.647Z,11.90
2023-03-25T10:09:22.938Z,11.70
2023-03-25T10:12:01.337Z,11.50
2023-03-25T10:14:51.359Z,11.40
2023-03-25T10:17:48.483Z,11.60
2023-03-25T10:20:34.310Z,12.10
2023-03-25T10:23:14.489Z,12.70
2023-03-25T10:25:46.087Z,12.80
2023-03-25T10:28:19.297Z,12.90
2023-03-25T10:30:51.719Z,12.70
2023-03-25T10:33:34.635Z,12.50
2023-03-25T10:36:02.409Z,12.20
2023-03-25T10:38:31.327Z,11.90
2023-03-25T10:41:25.900Z,11.70
2023-03-25T10:43:53.156Z,11.30
2023-03-25T10:46:56.270Z,11.20
2023-03-25T10:49:25.890Z,11.00
2023-03-25T10:51:54.869Z,11.10
2023-03-25T10:54:25.657Z,11.10
2023-03-25T10:56:55.400Z,11.00
2023-03-25T10:59:45.112Z,10.70
2023-03-25T11:02:28.289Z,10.40
2023-03-25T11:05:04.906Z,10.10
2023-03-25T11:07:42.008Z,9.90
2023-03-25T11:10:18.413Z,9.80
2023-03-25T11:12:46.656Z,9.70
2023-03-25T11:15:23.709Z,9.80
2023-03-25T11:18:16.910Z,10.20
2023-03-25T11:20:50.815Z,10.70
2023-03-25T11:23:26.530Z,11.10
2023-03-25T11:25:55.238Z,11.30
2023-03-25T11:28:39.423Z,11.30
2023-03-25T11:31:25.903Z,11.30
2023-03-25T11:34:19.433Z,11.40
2023-03-25T11:36:57.359Z,11.30
2023-03-25T11:39:30.486Z,11.10
2023-03-25T11:41:57.882Z,11.00
2023-03-25T11:44:31.104Z,11.00
2023-03-25T11:47:00.265Z,11.00
2023-03-25T11:49:29.798Z,11.10
2023-03-25T11:52:02.921Z,11.10
2023-03-25T11:54:30.479Z,11.20
2023-03-25T11:56:57.478Z,11.40
2023-03-25T11:59:46.469Z,11.50
2023-03-25T12:02:38.365Z,11.50
2023-03-25T12:05:13.734Z,11.70
2023-03-25T12:07:52.105Z,11.90
2023-03-25T12:10:40.412Z,11.90
2023-03-25T12:13:43.361Z,11.90
2023-03-25T12:16:23.753Z,11.80
2023-03-25T12:19:28.747Z,12.00
2023-03-25T12:22:29.666Z,12.20
2023-03-25T12:25:21.344Z,12.30
2023-03-25T12:28:12.140Z,12.50
2023-03-25T12:31:05.372Z,12.60
2023-03-25T12:33:51.791Z,12.70
2023-03-25T12:36:33.999Z,12.60
2023-03-25T12:39:35.641Z,12.80
2023-03-25T12:42:30.837Z,12.90
2023-03-25T12:45:17.960Z,12.70
2023-03-25T12:48:09.991Z,12.40
2023-03-25T12:50:43.402Z,12.10
2023-03-25T12:53:32.597Z,11.90
2023-03-25T12:56:08.196Z,11.60
2023-03-25T12:58:56.391Z,11.00
2023-03-25T13:01:52.469Z,10.70
2023-03-25T13:04:42.036Z,10.50
2023-03-25T13:07:21.763Z,10.50
2023-03-25T13:10:00.867Z,10.50
2023-03-25T13:12:35.889Z,10.40
2023-03-25T13:15:07.998Z,10.30
2023-03-25T13:17:44.150Z,10.30
2023-03-25T13:20:11.928Z,10.30
2023-03-25T13:22:46.693Z,10.30
2023-03-25T13:25:26.315Z,10.40
2023-03-25T13:27:56.459Z,10.50
2023-03-25T13:30:37.818Z,10.50
2023-03-25T13:33:18.960Z,10.60
2023-03-25T13:36:08.175Z,10.90
2023-03-25T13:38:41.851Z,11.30
2023-03-25T13:41:26.076Z,11.80
2023-03-25T13:43:59.723Z,12.00
2023-03-25T13:46:50.006Z,12.10
2023-03-25T13:49:21.436Z,12.20
2023-03-25T13:51:49.190Z,12.10
2023-03-25T13:54:31.282Z,12.10
2023-03-25T13:57:07.737Z,12.00
2023-03-25T13:59:52.753Z,11.70
2023-03-25T14:02:34.937Z,11.50
2023-03-25T14:05:16.691Z,11.10
2023-03-25T14:07:57.825Z,11.00
2023-03-25T14:10:47.653Z,10.90
2023-03-25T14:13:20.471Z,10.70
2023-03-25T14:16:07.722Z,10.70
2023-03-25T14:18:42.730Z,10.70
2023-03-25T14:21:39.665Z,10.70
2023-03-25T14:24:31.411Z,10.70
2023-03-25T14:27:07.888Z,10.70
2023-03-25T14:30:08.473Z,10.80
2023-03-25T14:32:37.851Z,10.90
2023-03-25T14:35:39.136Z,10.80
2023-03-25T14:38:08.907Z,10.70
2023-03-25T14:40:59.032Z,10.70
2023-03-25T14:43:37.356Z,10.60
2023-03-25T14:46:19.441Z,10.50
2023-03-25T14:48:51.497Z,10.30
2023-03-25T14:51:23.131Z,10.20
2023-03-25T14:54:13.352Z,9.80
2023-03-25T14:57:02.186Z,9.40
2023-03-25T14:59:39.534Z,9.20
2023-03-25T15:02:20.856Z,9.10
2023-03-25T15:04:59.806Z,9.10
2023-03-25T15:07:49.991Z,9.40
2023-03-25T15:10:25.316Z,9.60
2023-03-25T15:12:57.179Z,9.80
2023-03-25T15:15:45.965Z,9.90
2023-03-25T15:18:36.091Z,10.00
2023-03-25T15:21:10.245Z,9.90
2023-03-25T15:23:49.043Z,9.70
2023-03-25T15:26:40.106Z,9.60
2023-03-25T15:29:13.248Z,9.60
2023-03-25T15:31:42.760Z,9.70
2023-03-25T15:34:41.119Z,9.80
2023-03-25T15:37:46.690Z,10.00
2023-03-25T15:40:43.494Z,10.10
2023-03-25T15:43:44.637Z,10.10
2023-03-25T15:46:20.405Z,10.00
2023-03-25T15:49:01.298Z,10.00
2023-03-25T15:51:58.116Z,10.00
2023-03-25T15:54:28.275Z,10.10
2023-03-25T15:57:03.013Z,10.20
2023-03-25T15:59:38.493Z,10.10
2023-03-25T16:02:20.014Z,10.00
2023-03-25T16:05:13.986Z,9.80
2023-03-25T16:07:42.537Z,9.90
2023-03-25T16:10:20.629Z,10.10
2023-03-25T16:12:50.737Z,10.20
2023-03-25T16:15:24.310Z,10.20
2023-03-25T16:17:51.962Z,10.10
2023-03-25T16:20:23.472Z,10.00
2023-03-25T16:22:53.792Z,9.90
2023-03-25T16:25:33.442Z,9.80
2023-03-25T16:28:02.788Z,9.70
2023-03-25T16:30:39.540Z,9.60
2023-03-25T16:33:10.817Z,9.60
2023-03-25T16:35:40.961Z,9.50
2023-03-25T16:38:08.816Z,9.50
2023-03-25T16:40:40.430Z,9.60
2023-03-25T16:43:28.722Z,9.70
2023-03-25T16:46:01.785Z,9.80
2023-03-25T16:48:35.511Z,9.80
2023-03-25T16:51:22.546Z,9.80
2023-03-25T16:53:53.851Z,9.70
2023-03-25T16:56:23.762Z,9.80
2023-03-25T16:59:06.605Z,9.80
2023-03-25T17:01:42.903Z,9.90
2023-03-25T17:04:17.213Z,9.90
2023-03-25T17:06:46.935Z,9.80
2023-03-25T17:09:18.486Z,9.70
2023-03-25T17:11:47.559Z,9.70
2023-03-25T17:14:21.551Z,9.60
2023-03-25T17:16:50.253Z,9.40
2023-03-25T17:19:19.538Z,9.30
2023-03-25T17:22:18.587Z,9.20
2023-03-25T17:25:11.642Z,9.10
2023-03-25T17:27:40.250Z,9.10
2023-03-25T17:30:29.096Z,9.10
2023-03-25T17:33:11.250Z,9.10
2023-03-25T17:35:40.171Z,9.10
2023-03-25T17:38:08.882Z,9.10
2023-03-25T17:40:36.179Z,9.00
2023-03-25T17:43:02.826Z,9.00
2023-03-25T17:45:30.429Z,8.90
2023-03-25T17:47:57.107Z,8.90
2023-03-25T17:50:26.057Z,8.90
2023-03-25T17:52:52.897Z,8.90
2023-03-25T17:55:20.464Z,8.90
2023-03-25T17:57:47.166Z,8.90
2023-03-25T18:00:19.783Z,8.90
2023-03-25T18:02:49.868Z,8.90
2023-03-25T18:05:17.390Z,8.90
2023-03-25T18:07:44.107Z,8.90
2023-03-25T18:10:17.196Z,8.90
2023-03-25T18:12:44.271Z,8.90
2023-03-25T18:15:11.927Z,8.90
2023-03-25T18:17:39.021Z,8.90
2023-03-25T18:20:28.586Z,8.90
2023-03-25T18:22:55.869Z,8.80
2023-03-25T18:25:24.180Z,8.80
2023-03-25T18:27:56.622Z,8.80
2023-03-25T18:30:29.672Z,8.80
2023-03-25T18:32:56.462Z,8.70
2023-03-25T18:35:24.154Z,8.80
2023-03-25T18:37:50.888Z,8.80
2023-03-25T18:40:24.697Z,8.80
2023-03-25T18:42:51.746Z,8.90
2023-03-25T18:45:21.320Z,8.90
2023-03-25T18:47:49.205Z,8.90
2023-03-25T18:50:23.525Z,9.00
2023-03-25T18:52:50.686Z,8.90
2023-03-25T18:55:19.293Z,8.90
2023-03-25T18:57:46.435Z,8.90
2023-03-25T19:00:36.890Z,8.90
2023-03-25T19:03:04.147Z,8.80
2023-03-25T19:05:33.200Z,8.80
2023-03-25T19:08:00.148Z,8.70
2023-03-25T19:10:29.854Z,8.60
2023-03-25T19:12:56.963Z,8.60
2023-03-25T19:15:27.536Z,8.50
2023-03-25T19:17:58.699Z,8.50
2023-03-25T19:20:29.390Z,8.50
2023-03-25T19:22:56.758Z,8.50
2023-03-25T19:25:23.520Z,8.50
2023-03-25T19:27:51.106Z,8.50
2023-03-25T19:30:20.132Z,8.50
2023-03-25T19:32:49.746Z,8.50
2023-03-25T19:35:18.681Z,8.50
2023-03-25T19:37:51.111Z,8.60
2023-03-25T19:40:24.036Z,8.70
2023-03-25T19:42:55.964Z,8.80
2023-03-25T19:45:23.483Z,8.80
2023-03-25T19:47:52.553Z,8.80
2023-03-25T19:50:22.287Z,8.80
2023-03-25T19:52:51.482Z,8.90
2023-03-25T19:55:19.528Z,8.90
2023-03-25T19:57:47.612Z,8.90
2023-03-25T20:00:26.424Z,8.90
2023-03-25T20:03:00.889Z,9.00
2023-03-25T20:05:30.195Z,8.90
2023-03-25T20:07:58.110Z,8.90
2023-03-25T20:10:28.114Z,8.90
2023-03-25T20:12:56.240Z,8.90
2023-03-25T20:15:24.932Z,8.90
2023-03-25T20:17:54.043Z,8.90
2023-03-25T20:20:21.871Z,8.90
2023-03-25T20:22:49.258Z,8.90
2023-03-25T20:25:16.137Z,8.80
2023-03-25T20:27:44.233Z,8.70
2023-03-25T20:30:13.755Z,8.70
2023-03-25T20:32:42.657Z,8.70
2023-03-25T20:35:13.176Z,8.60
2023-03-25T20:37:42.419Z,8.60
2023-03-25T20:40:14.173Z,8.60
2023-03-25T20:42:43.104Z,8.60
2023-03-25T20:45:13.541Z,8.60
2023-03-25T20:47:41.321Z,8.70
2023-03-25T20:50:09.731Z,8.70
2023-03-25T20:52:37.852Z,8.70
2023-03-25T20:55:06.016Z,8.70
2023-03-25T20:57:33.612Z,8.70
2023-03-25T21:00:01.080Z,8.70
2023-03-25T21:02:27.979Z,8.80
2023-03-25T21:04:59.064Z,8.70
2023-03-25T21:07:31.753Z,8.80
2023-03-25T21:09:59.865Z,8.80
2023-03-25T21:12:40.611Z,8.80
2023-03-25T21:15:09.397Z,8.80
2023-03-25T21:17:36.866Z,8.80
2023-03-25T21:20:07.753Z,8.80
2023-03-25T21:22:34.761Z,8.80
2023-03-25T21:25:02.196Z,8.80
2023-03-25T21:27:38.293Z,8.80
2023-03-25T21:30:10.002Z,8.80
2023-03-25T21:32:38.482Z,8.90
2023-03-25T21:35:06.480Z,8.90
2023-03-25T21:37:37.517Z,8.90
2023-03-25T21:40:08.558Z,8.90
2023-03-25T21:42:38.195Z,9.00
2023-03-25T21:45:08.256Z,9.00
2023-03-25T21:47:36.038Z,9.00
2023-03-25T21:50:10.058Z,9.00
2023-03-25T21:52:38.179Z,9.00
2023-03-25T21:55:05.976Z,9.00
2023-03-25T21:57:37.449Z,8.90
2023-03-25T22:00:07.594Z,8.90
2023-03-25T22:02:38.642Z,8.90
2023-03-25T22:05:06.543Z,8.80
2023-03-25T22:07:33.248Z,8.70
2023-03-25T22:10:00.233Z,8.60
2023-03-25T22:12:27.148Z,8.60
2023-03-25T22:14:54.410Z,8.60
2023-03-25T22:17:21.308Z,8.50
2023-03-25T22:19:49.082Z,8.40
2023-03-25T22:22:18.907Z,8.40
2023-03-25T22:24:46.989Z,8.40
2023-03-25T22:27:14.017Z,8.40
2023-03-25T22:29:42.824Z,8.30
2023-03-25T22:32:10.574Z,8.30
2023-03-25T22:34:38.678Z,8.20
2023-03-25T22:37:05.604Z,8.20
2023-03-25T22:39:33.051Z,8.20
2023-03-25T22:42:00.191Z,8.10
2023-03-25T22:44:27.770Z,8.10
2023-03-25T22:46:55.097Z,8.10
2023-03-25T22:49:22.869Z,8.00
2023-03-25T22:51:50.084Z,8.00
2023-03-25T22:54:17.643Z,8.00
2023-03-25T22:56:44.423Z,8.00
2023-03-25T22:59:13.430Z,7.90
2023-03-25T23:01:41.539Z,7.90
2023-03-25T23:04:09.811Z,7.90
2023-03-25T23:06:37.159Z,8.00
2023-03-25T23:09:06.332Z,7.90
2023-03-25T23:11:33.073Z,8.00
2023-03-25T23:14:09.381Z,8.00
2023-03-25T23:16:36.826Z,8.00
2023-03-25T23:19:06.944Z,8.10
2023-03-25T23:21:34.097Z,8.10
2023-03-25T23:24:04.057Z,8.20
2023-03-25T23:26:39.991Z,8.20
2023-03-25T23:29:09.974Z,8.20
2023-03-25T23:31:38.035Z,8.20
2023-03-25T23:34:07.469Z,8.20
2023-03-25T23:36:36.383Z,8.20
2023-03-25T23:39:07.475Z,8.20
2023-03-25T23:41:34.855Z,8.20
2023-03-25T23:44:02.963Z,8.20
2023-03-25T23:46:30.322Z,8.10
2023-03-25T23:49:02.743Z,8.10
2023-03-25T23:51:32.901Z,8.10
2023-03-25T23:54:00.875Z,8.00
2023-03-25T23:56:28.077Z,8.00
2023-03-25T23:58:55.721Z,8.00
